Terminal Aerodrome Forecast
Issued by NWS

Home | Current Version | Previous Version | Text Only | Print | Product List | Glossary On
Versions: 1 2 3 4 5 6 7 8 9 10 11 12 13 14 15 16 17
000
FTUS45 KGJT 251120
TAFMTJ
TAF
KMTJ 251120Z 2512/2612 32003KT P6SM FEW250
     FM251600 22006KT P6SM FEW250
     FM251800 28010G20KT P6SM FEW250
     FM260100 20007KT P6SM SCT250
     FM260200 12005KT P6SM FEW250=

USA.gov is the U.S. government's official web portal to all federal, state and local government web resources and services.